Time;durP1;ratioP1;P1;durP2;ratioP2;P2;SDS_P1;SDS_P2;PMS_P1;PMS_P2;Temp;Humidity;BMP_temperature;BMP_pressure;BME280_temperature;BME280_humidity;BME280_pressure;Samples;Min_cycle;Max_cycle;Signal;HPM_P1;HPM_P2
2022/01/01 00:02:59;;;;;;;15.45;5.90;;;;;;;8.13;38.97;93328.34;4848184;29;20145;-90
2022/01/01 00:18:00;;;;;;;5.82;2.65;;;;;;;8.35;39.18;93328.19;4920597;29;20454;-90
2022/01/01 00:31:59;;;;;;;4.72;2.20;;;;;;;8.29;38.57;93316.19;4920553;29;20095;-91
2022/01/01 00:38:37;;;;;;;;;;;;;;;;;;;;;
2022/01/01 00:45:45;;;;;;;2.03;1.00;;;;;;;8.92;34.77;93306.63;4920602;29;20082;-90
2022/01/01 05:14:57;;;;;;;0.50;0.50;;;;;;;13.31;21.12;93222.78;5283412;23;20107;-90
2022/01/01 05:21:54;;;;;;;;;;;;;;;;;;;;;
2022/01/01 05:25:07;;;;;;;0.50;0.50;;;;;;;13.42;20.91;93200.53;4919768;29;20099;-89
2022/01/01 05:28:44;;;;;;;0.40;0.40;;;;;;;13.77;21.06;93243.13;4920665;29;20052;-89
2022/01/01 05:35:32;;;;;;;0.35;0.35;;;;;;;14.00;20.45;93243.31;4900453;28;20048;-89
2022/01/01 05:42:14;;;;;;;;;;;;;;;13.99;20.49;93239.91;4919633;29;20059;-89
2022/01/01 05:49:37;;;;;;;0.82;0.60;;;;;;;13.97;20.39;93233.38;4862919;29;20464;-90
2022/01/01 05:56:13;;;;;;;0.75;0.43;;;;;;;13.99;20.30;93226.75;4862826;29;20117;-91
2022/01/01 07:22:01;;;;;;;1.55;0.70;;;;;;;14.06;21.08;93255.31;4917031;29;20618;-89
2022/01/01 07:25:01;;;;;;;0.75;0.50;;;;;;;13.82;20.97;93224.63;4902912;29;20402;-88
2022/01/01 07:27:48;;;;;;;;;;;;;;;;;;;;;
2022/01/01 07:34:55;;;;;;;1.73;0.82;;;;;;;18.73;17.65;93288.47;4918259;29;20059;-90
2022/01/01 07:52:16;;;;;;;1.55;1.00;;;;;;;27.22;11.47;93282.38;4841027;29;20553;-91
2022/01/01 08:03:28;;;;;;;1.63;1.00;;;;;;;29.42;10.51;93301.81;4770261;29;20093;-91
2022/01/01 08:38:23;;;;;;;1.80;1.15;;;;;;;22.52;17.30;93348.88;4901955;29;20129;-89
2022/01/01 08:44:48;;;;;;;1.13;0.70;;;;;;;22.61;16.88;93338.81;4901613;29;20060;-88
2022/01/01 08:47:14;;;;;;;1.15;0.90;;;;;;;23.73;14.10;93353.78;4900108;29;20056;-89
2022/01/01 08:49:52;;;;;;;;;;;;;;;;;;;;;
2022/01/01 08:53:01;;;;;;;1.75;0.80;;;;;;;26.26;12.04;93321.25;4902911;29;20063;-89
2022/01/01 08:56:19;;;;;;;3.15;1.50;;;;;;;27.11;12.52;93309.13;4902206;29;20051;-89
2022/01/01 09:03:38;;;;;;;1.40;0.77;;;;;;;27.16;11.29;93347.19;4901577;29;20051;-88
2022/01/01 09:10:15;;;;;;;0.90;0.70;;;;;;;25.28;14.45;93349.66;4901006;29;20141;-89
2022/01/01 09:16:54;;;;;;;3.42;1.20;;;;;;;26.99;11.74;93347.78;4901081;29;20387;-88
2022/01/01 09:24:08;;;;;;;1.55;0.90;;;;;;;28.88;10.24;93358.31;4900674;29;20047;-88
2022/01/01 09:27:06;;;;;;;1.02;0.80;;;;;;;29.31;10.19;93368.44;4885930;29;20119;-88
2022/01/01 09:29:57;;;;;;;1.75;1.05;;;;;;;28.64;9.92;93367.84;4900200;29;20053;-88
2022/01/01 09:36:22;;;;;;;1.20;0.90;;;;;;;26.86;10.99;93367.97;4900256;29;20047;-88
2022/01/01 09:42:51;;;;;;;1.15;0.80;;;;;;;26.07;14.59;93364.28;4898828;29;20398;-88
2022/01/01 09:45:20;;;;;;;1.17;0.75;;;;;;;26.32;13.00;93359.25;4884294;29;20103;-88
2022/01/01 09:47:47;;;;;;;2.85;0.98;;;;;;;26.56;13.83;93372.25;4901119;29;20040;-88
2022/01/01 09:50:12;;;;;;;1.83;0.90;;;;;;;26.46;14.41;93350.63;4852777;29;20169;-89
2022/01/01 09:52:39;;;;;;;1.45;0.90;;;;;;;26.54;13.72;93338.81;4868680;29;20119;-88
2022/01/01 09:59:00;;;;;;;0.80;0.57;;;;;;;26.73;12.77;93365.53;4900211;29;20072;-88
2022/01/01 10:01:25;;;;;;;1.25;0.77;;;;;;;26.64;13.65;93367.75;4868106;29;20036;-89
2022/01/01 10:03:56;;;;;;;1.42;0.93;;;;;;;26.58;13.01;93361.16;4868259;29;20398;-89
2022/01/01 10:10:53;;;;;;;1.15;0.70;;;;;;;26.04;12.93;93332.84;4899459;29;20542;-88
2022/01/01 10:13:45;;;;;;;1.55;1.00;;;;;;;26.17;12.60;93364.44;4876912;29;20046;-90
2022/01/01 10:16:44;;;;;;;1.70;0.98;;;;;;;25.12;14.10;93365.81;4875235;29;20045;-90
2022/01/01 10:19:37;;;;;;;2.28;1.02;;;;;;;23.23;15.01;93355.28;4891799;29;20522;-88
2022/01/01 10:22:52;;;;;;;;;;;;;;;;;;;;;
2022/01/01 10:29:14;;;;;;;;;;;;;;;;;;;;;
2022/01/01 10:32:15;;;;;;;1.50;0.90;;;;;;;22.70;14.33;93327.97;4905075;29;20051;-88
2022/01/01 10:35:09;;;;;;;3.88;1.00;;;;;;;22.40;15.23;93357.66;4915007;29;20052;-87
2022/01/01 10:37:54;;;;;;;3.40;1.20;;;;;;;23.26;15.44;93367.97;4900400;29;20042;-87
2022/01/01 10:41:03;;;;;;;;;;;;;;;;;;;;;
2022/01/01 10:44:23;;;;;;;1.55;0.80;;;;;;;23.39;14.24;93363.31;4899402;29;20047;-88
2022/01/01 10:47:17;;;;;;;;;;;;;;;;;;;;;
2022/01/01 10:52:51;;;;;;;1.90;1.05;;;;;;;22.75;14.33;93336.53;4904447;29;20482;-88
2022/01/01 10:55:38;;;;;;;1.33;0.80;;;;;;;22.35;13.93;93357.91;4896093;29;20048;-88
2022/01/01 10:58:16;;;;;;;1.33;0.80;;;;;;;23.03;14.76;93384.59;4881690;29;20049;-89
2022/01/01 11:01:13;;;;;;;1.17;0.80;;;;;;;23.08;14.79;93338.16;4896589;29;20042;-88
2022/01/01 11:04:07;;;;;;;2.40;0.90;;;;;;;22.52;13.43;93333.63;4901033;29;20119;-89
2022/01/01 11:07:06;;;;;;;1.65;0.82;;;;;;;22.55;14.39;93386.31;4876431;29;20143;-88
2022/01/01 11:13:23;;;;;;;1.70;1.00;;;;;;;22.90;15.40;93372.38;4917437;29;20095;-88
2022/01/01 11:19:54;;;;;;;2.15;1.20;;;;;;;22.29;15.87;93351.25;4863862;29;20394;-87
2022/01/01 11:22:20;;;;;;;1.75;1.10;;;;;;;22.18;16.17;93373.06;4884324;29;20036;-88
2022/01/01 11:24:47;;;;;;;1.03;0.70;;;;;;;22.52;16.41;93375.56;4833649;29;1498958;-88
2022/01/01 11:27:13;;;;;;;2.22;1.20;;;;;;;22.76;16.02;93377.31;4900977;29;20052;-89
2022/01/01 11:33:40;;;;;;;3.75;1.50;;;;;;;22.34;17.68;93361.72;4917791;29;20051;-88
2022/01/01 11:36:09;;;;;;;2.65;1.30;;;;;;;22.11;18.69;93364.84;4885774;29;20099;-89
2022/01/01 11:38:36;;;;;;;2.22;1.30;;;;;;;21.29;19.32;93338.34;4885596;29;20088;-89
2022/01/01 11:41:18;;;;;;;2.65;1.38;;;;;;;21.18;18.87;93343.31;4885138;29;20052;-88
2022/01/01 11:43:54;;;;;;;2.28;1.20;;;;;;;21.13;19.15;93348.88;4885392;29;20363;-88
2022/01/01 11:46:29;;;;;;;2.90;1.40;;;;;;;20.83;21.06;93349.03;4885394;29;20066;-88
2022/01/01 11:49:05;;;;;;;6.13;1.80;;;;;;;20.86;20.89;93345.72;4886105;29;20140;-88
2022/01/01 11:59:20;;;;;;;3.75;1.50;;;;;;;20.85;21.71;93335.38;4917515;29;20042;-88
2022/01/01 12:01:47;;;;;;;4.25;1.73;;;;;;;20.82;22.31;93342.16;4885111;29;20040;-89
2022/01/01 12:04:42;;;;;;;3.22;1.83;;;;;;;21.15;22.19;93347.44;4880890;29;20035;-88
2022/01/01 12:07:29;;;;;;;3.00;1.40;;;;;;;21.27;20.18;93337.91;4881265;29;20052;-89
2022/01/01 12:10:29;;;;;;;3.00;1.50;;;;;;;21.32;20.19;93321.69;4914107;29;20129;-88
2022/01/01 12:13:12;;;;;;;5.70;2.80;;;;;;;20.87;21.84;93295.91;4900005;29;20044;-88
2022/01/01 12:16:44;;;;;;;5.88;2.90;;;;;;;20.85;24.25;93308.78;4882317;29;20044;-88
2022/01/01 12:19:25;;;;;;;4.50;2.30;;;;;;;20.55;24.10;93280.41;4854650;29;20093;-88
2022/01/01 12:22:15;;;;;;;5.05;2.15;;;;;;;20.88;23.50;93313.47;4831764;29;20041;-91
2022/01/01 12:25:41;;;;;;;5.18;2.55;;;;;;;21.03;22.01;93293.38;4871418;29;20079;-89
2022/01/01 12:28:22;;;;;;;3.67;1.85;;;;;;;21.08;23.94;93272.66;4896359;29;20047;-88
2022/01/01 12:31:17;;;;;;;3.75;1.90;;;;;;;21.10;22.73;93286.44;4887081;29;20485;-88
2022/01/01 12:34:14;;;;;;;4.72;2.40;;;;;;;20.93;24.83;93332.63;4898856;29;20040;-88
2022/01/01 12:37:22;;;;;;;;;;;;;;;;;;;;;
2022/01/01 12:40:22;;;;;;;8.00;2.80;;;;;;;20.05;25.68;93273.38;4900427;29;20043;-88
2022/01/01 12:43:43;;;;;;;;;;;;;;;;;;;;;
2022/01/01 12:47:08;;;;;;;3.45;1.65;;;;;;;21.10;21.73;93299.72;4919204;29;20287;-88
2022/01/01 12:49:50;;;;;;;6.40;3.08;;;;;;;20.39;24.87;93287.47;4892833;29;20044;-88
2022/01/01 12:52:51;;;;;;;6.28;2.70;;;;;;;20.66;24.39;93291.44;4884328;29;20036;-89
2022/01/01 12:55:42;;;;;;;14.70;4.93;;;;;;;20.37;25.51;93279.03;4873264;29;20052;-88
2022/01/01 12:58:26;;;;;;;5.88;2.47;;;;;;;20.39;24.25;93260.88;4884993;29;20400;-88
2022/01/01 13:01:40;;;;;;;10.88;5.57;;;;;;;20.74;25.00;93313.75;4910327;29;20046;-88
2022/01/01 13:04:21;;;;;;;11.43;4.95;;;;;;;20.71;23.67;93269.19;4887769;29;20048;-88
2022/01/01 13:07:28;;;;;;;;;;;;;;;;;;;;;
2022/01/01 13:10:11;;;;;;;;;;;;;;;19.60;25.39;93305.09;4913855;29;20064;-88
2022/01/01 13:13:17;;;;;;;6.90;3.35;;;;;;;19.88;25.54;93254.94;4917702;29;19954;-88
2022/01/01 13:16:08;;;;;;;7.20;2.67;;;;;;;19.76;26.03;93258.31;4899272;29;20067;-89
2022/01/01 13:19:24;;;;;;;;;;;;;;;;;;;;;
2022/01/01 13:22:39;;;;;;;8.35;4.22;;;;;;;19.41;26.45;93261.19;4909241;29;20099;-88
2022/01/01 13:25:48;;;;;;;7.57;3.40;;;;;;;19.16;27.43;93283.31;4910914;29;20119;-90
2022/01/01 13:29:23;;;;;;;9.57;4.30;;;;;;;19.59;26.56;93304.34;4917086;29;20051;-88
2022/01/01 13:32:12;;;;;;;6.03;2.88;;;;;;;19.38;25.75;93250.41;4900072;29;20518;-89
2022/01/01 13:35:01;;;;;;;12.00;5.50;;;;;;;19.66;25.66;93256.03;4918407;29;20043;-88
2022/01/01 13:37:49;;;;;;;7.80;4.32;;;;;;;19.80;25.46;93237.19;4874726;29;20040;-88
2022/01/01 13:40:22;;;;;;;13.02;6.30;;;;;;;20.46;25.11;93298.34;4908888;29;20040;-88
2022/01/01 13:43:06;;;;;;;17.10;9.20;;;;;;;19.98;25.43;93240.47;4901495;29;20048;-87
2022/01/01 13:45:45;;;;;;;34.70;16.58;;;;;;;19.76;25.02;93231.75;4888072;29;20048;-87
2022/01/01 13:48:49;;;;;;;10.32;5.25;;;;;;;20.20;24.48;93247.28;4917236;29;20389;-88
2022/01/01 13:51:22;;;;;;;5.40;2.95;;;;;;;19.59;25.49;93240.59;4885049;29;20044;-88
2022/01/01 13:54:17;;;;;;;5.25;3.22;;;;;;;20.01;25.06;93243.25;4900118;29;20048;-87
2022/01/01 13:57:09;;;;;;;4.25;2.55;;;;;;;20.74;23.21;93264.00;4900758;29;20035;-88
2022/01/01 13:59:51;;;;;;;5.25;2.85;;;;;;;20.81;23.61;93238.72;4913619;29;20336;-88
2022/01/01 14:02:40;;;;;;;;;;;;;;;;;;;;;
2022/01/01 14:05:20;;;;;;;9.88;5.00;;;;;;;21.02;23.19;93239.38;4901152;29;20047;-87
2022/01/01 14:08:27;;;;;;;;;;;;;;;;;;;;;
2022/01/01 14:11:02;;;;;;;7.40;4.13;;;;;;;20.29;23.75;93224.88;4898450;29;20045;-88
2022/01/01 14:13:43;;;;;;;9.68;4.55;;;;;;;21.21;23.77;93252.94;4899207;29;20098;-87
2022/01/01 14:16:24;;;;;;;8.90;4.68;;;;;;;21.47;22.94;93238.50;4885996;29;20068;-87
2022/01/01 14:19:09;;;;;;;;;;;;;;;;;;;;;
2022/01/01 14:21:43;;;;;;;9.43;3.40;;;;;;;21.96;23.75;93256.25;4899530;29;20135;-88
2022/01/01 14:24:23;;;;;;;3.67;1.90;;;;;;;21.77;22.52;93235.53;4875723;29;20037;-87
2022/01/01 14:27:09;;;;;;;;;;;;;;;;;;;;;
2022/01/01 14:29:56;;;;;;;7.22;1.95;;;;;;;21.87;21.35;93260.97;4889476;29;20047;-88
2022/01/01 14:32:50;;;;;;;4.85;2.00;;;;;;;21.79;22.14;93255.41;4877697;29;20036;-87
2022/01/01 14:35:49;;;;;;;;;;;;;;;;;;;;;
2022/01/01 14:42:41;;;;;;;5.70;2.07;;;;;;;21.73;21.25;93256.78;4876087;29;20383;-88
2022/01/01 15:00:34;;;;;;;5.75;2.60;;;;;;;19.04;23.87;93246.84;4914411;29;20048;-88
2022/01/01 15:03:36;;;;;;;;;;;;;;;;;;;;;
2022/01/01 15:06:34;;;;;;;5.10;2.40;;;;;;;17.88;25.44;93304.94;4912644;29;20047;-88
2022/01/01 15:09:21;;;;;;;5.32;2.25;;;;;;;17.14;25.40;93252.81;4877225;29;20074;-87
2022/01/01 15:12:06;;;;;;;4.45;2.25;;;;;;;16.83;27.09;93258.16;4891655;29;20051;-87
2022/01/01 15:15:04;;;;;;;5.45;2.33;;;;;;;16.39;28.88;93257.16;4886665;29;20036;-88
2022/01/01 15:18:04;;;;;;;;;;;;;;;;;;;;;
2022/01/01 15:21:14;;;;;;;3.83;2.10;;;;;;;15.75;30.68;93260.00;4896951;29;20047;-87
2022/01/01 15:23:44;;;;;;;6.70;2.20;;;;;;;15.79;30.89;93319.06;4873420;29;20139;-89
2022/01/01 15:26:46;;;;;;;5.32;2.25;;;;;;;15.19;31.95;93281.22;4883202;29;20055;-87
2022/01/01 15:39:32;;;;;;;4.43;2.15;;;;;;;14.46;33.99;93326.84;4925635;29;20044;-87
2022/01/01 15:45:54;;;;;;;4.72;2.13;;;;;;;13.65;34.48;93266.50;4902793;29;20399;-88
2022/01/01 15:48:40;;;;;;;4.15;1.83;;;;;;;13.67;34.17;93298.56;4883475;29;20040;-88
2022/01/01 15:51:34;;;;;;;3.40;1.90;;;;;;;13.48;34.19;93299.31;4881693;29;20040;-87
2022/01/01 15:54:16;;;;;;;6.40;2.20;;;;;;;13.09;34.77;93265.38;4895842;29;20058;-88
2022/01/01 15:57:07;;;;;;;3.95;1.80;;;;;;;13.18;35.15;93299.69;4885519;29;20037;-87
2022/01/01 16:00:40;;;;;;;;;;;;;;;;;;;;;
2022/01/01 16:03:59;;;;;;;8.20;2.08;;;;;;;12.62;35.69;93275.59;4915626;29;20079;-88
2022/01/01 16:06:49;;;;;;;4.32;2.17;;;;;;;12.55;35.79;93285.66;4845824;29;20093;-87
2022/01/01 16:09:33;;;;;;;3.97;1.90;;;;;;;12.21;35.36;93273.38;4913193;29;20044;-87
2022/01/01 16:12:33;;;;;;;5.32;2.25;;;;;;;12.43;35.02;93327.28;4910694;29;20500;-88
2022/01/01 16:15:49;;;;;;;;;;;;;;;;;;;;;
2022/01/01 16:19:00;;;;;;;4.00;2.10;;;;;;;12.10;34.53;93332.28;4910293;29;20104;-87
2022/01/01 16:21:37;;;;;;;3.92;1.80;;;;;;;11.80;34.37;93294.69;4910844;29;20040;-87
2022/01/01 16:24:44;;;;;;;4.40;1.80;;;;;;;11.94;34.68;93333.44;4908556;29;20044;-87
2022/01/01 16:27:38;;;;;;;4.43;1.90;;;;;;;11.39;35.14;93268.72;4882838;29;20260;-87
2022/01/01 16:30:10;;;;;;;7.25;2.00;;;;;;;11.35;34.40;93267.69;4915556;29;20088;-86
2022/01/01 16:32:53;;;;;;;3.83;1.90;;;;;;;11.35;34.15;93267.69;4885321;29;20079;-87
2022/01/01 16:35:24;;;;;;;3.63;1.90;;;;;;;11.33;34.43;93269.03;4928289;29;20044;-86
2022/01/01 16:38:07;;;;;;;3.80;1.90;;;;;;;11.26;35.13;93271.94;4908168;29;20127;-89
2022/01/01 16:41:09;;;;;;;5.47;1.90;;;;;;;11.15;35.36;93275.69;4914010;29;20111;-85
2022/01/01 16:44:27;;;;;;;3.80;2.03;;;;;;;11.40;35.65;93341.06;4919049;29;20036;-86
2022/01/01 16:47:10;;;;;;;5.50;2.20;;;;;;;11.34;35.36;93334.28;4923237;29;20111;-87
2022/01/01 16:49:41;;;;;;;7.45;1.80;;;;;;;11.06;34.60;93300.88;4915321;29;20485;-88
2022/01/01 16:52:26;;;;;;;3.40;1.60;;;;;;;10.86;34.89;93305.13;4880882;29;20041;-86
2022/01/01 16:54:54;;;;;;;5.57;1.60;;;;;;;10.97;35.04;93329.47;4900775;29;20044;-86
2022/01/01 16:57:32;;;;;;;3.22;1.58;;;;;;;11.00;34.98;93345.41;4901328;29;20031;-87
2022/01/01 17:00:07;;;;;;;4.63;1.40;;;;;;;10.53;35.25;93288.97;4908992;29;20737;-87
2022/01/01 17:02:52;;;;;;;;;;;;;;;;;;;;;
2022/01/01 17:41:31;;;;;;;6.55;2.97;;;;;;;10.09;35.65;93367.25;4920704;29;20108;-88
2022/01/01 17:44:00;;;;;;;4.88;2.17;;;;;;;9.96;36.03;93352.84;4903665;29;20040;-88
2022/01/01 17:46:25;;;;;;;5.82;2.20;;;;;;;9.80;35.74;93331.91;4887680;29;20474;-87
2022/01/01 17:48:54;;;;;;;5.53;1.92;;;;;;;9.88;35.91;93350.75;4903036;29;20164;-88
2022/01/01 17:51:26;;;;;;;7.78;1.95;;;;;;;9.63;35.96;93317.50;4887603;29;20051;-87
2022/01/01 17:54:18;;;;;;;4.72;2.15;;;;;;;9.65;35.99;93331.88;4902252;29;20044;-87
2022/01/01 17:57:14;;;;;;;7.03;2.70;;;;;;;9.59;35.91;93322.47;4904660;29;20192;-88
2022/01/01 17:59:45;;;;;;;5.93;2.47;;;;;;;9.49;36.19;93307.56;4887417;29;20115;-87
2022/01/01 18:02:18;;;;;;;4.55;2.10;;;;;;;9.55;36.54;93321.44;4887344;29;20486;-87
2022/01/01 18:05:12;;;;;;;3.75;1.80;;;;;;;9.58;37.17;93333.97;4896711;29;20149;-87
2022/01/01 18:08:16;;;;;;;3.35;1.65;;;;;;;9.74;37.10;93368.78;4886741;29;20036;-88
2022/01/01 18:11:21;;;;;;;5.50;2.45;;;;;;;9.67;36.93;93363.78;4883969;29;20092;-88
2022/01/01 18:14:25;;;;;;;4.97;2.58;;;;;;;9.43;36.91;93329.47;4902102;29;20036;-88
2022/01/01 18:17:40;;;;;;;7.18;3.05;;;;;;;9.56;35.80;93354.34;4891944;29;20409;-88
2022/01/01 18:20:21;;;;;;;3.47;1.80;;;;;;;9.63;36.04;93365.34;4917739;29;20044;-89
2022/01/01 18:23:12;;;;;;;;;;;;;;;;;;;;;
2022/01/01 18:51:14;;;;;;;4.20;1.77;;;;;;;9.40;37.28;93397.97;4786053;30;20054;-88
2022/01/01 18:57:58;;;;;;;10.57;4.53;;;;;;;8.98;35.22;93351.03;4826302;29;20053;-87
2022/01/01 19:00:45;;;;;;;10.60;3.72;;;;;;;9.06;35.35;93367.00;4868149;29;20065;-89
2022/01/01 19:03:31;;;;;;;8.95;2.67;;;;;;;8.97;35.55;93352.84;4878101;29;20047;-86
2022/01/01 19:06:05;;;;;;;7.20;2.20;;;;;;;9.24;35.20;93388.50;4855903;29;20033;-86
2022/01/01 19:08:55;;;;;;;2.67;1.23;;;;;;;9.05;35.38;93354.19;4872977;29;20040;-86
2022/01/01 19:11:26;;;;;;;1.45;0.90;;;;;;;9.18;35.27;93374.63;4863083;29;20033;-86
2022/01/01 19:14:33;;;;;;;1.73;1.10;;;;;;;9.45;34.96;93400.56;4878132;29;20044;-86
2022/01/01 19:17:14;;;;;;;1.85;1.00;;;;;;;9.11;35.11;93345.34;4858790;29;20086;-86
2022/01/01 19:19:56;;;;;;;2.40;1.17;;;;;;;9.10;35.47;93339.34;4869177;29;20514;-86
2022/01/01 19:22:43;;;;;;;2.22;1.10;;;;;;;9.20;35.60;93354.25;4882180;29;20036;-86
2022/01/01 19:25:18;;;;;;;1.33;0.90;;;;;;;9.10;35.48;93349.00;4859690;29;20056;-86
2022/01/01 19:27:49;;;;;;;2.03;1.10;;;;;;;9.31;35.22;93384.59;4878121;29;20503;-86
2022/01/01 19:30:28;;;;;;;2.00;1.10;;;;;;;9.28;35.15;93377.28;4879668;29;21484;-86
2022/01/01 19:33:20;;;;;;;1.52;1.05;;;;;;;9.32;35.20;93388.78;4881680;29;20041;-86
2022/01/01 19:35:57;;;;;;;1.33;0.88;;;;;;;9.08;35.41;93345.84;4878725;29;20048;-87
2022/01/01 19:38:26;;;;;;;4.43;1.50;;;;;;;9.11;35.31;93347.94;4863535;29;20093;-86
2022/01/01 19:40:58;;;;;;;2.40;1.10;;;;;;;9.45;35.18;93405.03;4862803;29;20067;-87
2022/01/01 19:43:32;;;;;;;2.92;1.20;;;;;;;9.28;35.38;93379.88;4878838;29;20550;-86
2022/01/01 19:46:06;;;;;;;3.90;1.67;;;;;;;9.27;35.15;93382.75;4879078;29;20092;-87
2022/01/01 19:48:42;;;;;;;3.58;1.38;;;;;;;9.32;35.34;93394.03;4862377;29;20041;-87
2022/01/01 19:51:10;;;;;;;2.65;1.33;;;;;;;9.20;35.83;93385.59;4849047;29;20041;-86
2022/01/01 19:53:48;;;;;;;3.38;1.17;;;;;;;8.98;35.82;93356.25;4846211;29;20039;-86
2022/01/01 19:56:14;;;;;;;2.47;1.13;;;;;;;9.16;35.70;93381.91;4845521;29;20045;-87
2022/01/01 19:58:40;;;;;;;6.47;1.23;;;;;;;9.01;35.89;93366.19;4877780;29;20095;-86
2022/01/01 20:01:06;;;;;;;2.65;1.33;;;;;;;9.06;35.94;93384.50;4877835;29;20068;-87
2022/01/01 20:03:34;;;;;;;3.00;1.40;;;;;;;8.77;35.63;93350.94;4863643;29;20040;-86
2022/01/01 20:06:03;;;;;;;4.50;1.40;;;;;;;8.87;35.76;93377.09;4835152;29;20041;-86
2022/01/01 20:08:31;;;;;;;2.08;1.25;;;;;;;8.88;35.46;93380.50;4883443;29;20040;-86
2022/01/01 20:11:07;;;;;;;2.95;1.30;;;;;;;8.69;35.45;93359.22;4861206;29;20068;-86
2022/01/01 20:13:38;;;;;;;2.72;1.20;;;;;;;8.75;35.19;93371.28;4876009;29;20147;-88
2022/01/01 20:16:29;;;;;;;3.13;1.40;;;;;;;9.07;35.18;93430.47;4862722;29;20056;-87
2022/01/01 20:19:14;;;;;;;3.30;1.35;;;;;;;8.67;35.37;93369.13;4890508;29;20040;-86
2022/01/01 20:21:48;;;;;;;1.73;1.20;;;;;;;8.75;35.26;93387.72;4863987;29;20067;-86
2022/01/01 20:24:46;;;;;;;;;;;;;;;;;;;;;
2022/01/01 20:27:47;;;;;;;5.95;1.55;;;;;;;8.68;35.71;93387.16;4890460;29;20029;-86
2022/01/01 20:30:41;;;;;;;2.95;1.50;;;;;;;8.54;35.96;93376.38;4872996;29;20116;-86
2022/01/01 20:33:27;;;;;;;;;;;;;;;;;;;;;
2022/01/01 20:36:15;;;;;;;6.40;2.47;;;;;;;8.76;35.78;93417.25;4909863;29;20037;-85
2022/01/01 20:39:03;;;;;;;5.70;2.30;;;;;;;8.79;35.63;93429.78;4894318;29;20561;-85
2022/01/01 20:45:02;;;;;;;;;;;;;;;;;;;;;
2022/01/01 20:47:38;;;;;;;3.05;1.20;;;;;;;8.69;35.58;93409.63;4913805;29;20044;-86
2022/01/01 20:50:26;;;;;;;3.17;1.13;;;;;;;8.50;35.84;93375.28;4908698;29;20055;-87
2022/01/01 21:05:48;;;;;;;;;;;;;;;;;;;;;
2022/01/01 21:30:47;;;;;;;5.20;2.30;;;;;;;8.71;36.42;93419.78;5066982;27;20379;-81
2022/01/01 21:33:13;;;;;;;7.85;1.60;;;;;;;8.72;36.71;93421.38;5034647;28;20069;-81
2022/01/01 21:35:39;;;;;;;2.17;1.25;;;;;;;8.70;36.48;93424.25;5051242;28;20493;-81
2022/01/01 21:38:05;;;;;;;2.25;1.23;;;;;;;8.69;36.62;93414.03;5051115;28;20037;-81
2022/01/01 21:40:31;;;;;;;2.90;1.33;;;;;;;8.68;36.81;93418.47;5084394;28;20510;-80
2022/01/01 21:42:56;;;;;;;2.10;1.20;;;;;;;8.63;36.85;93428.91;5048129;28;20029;-78
2022/01/01 21:45:22;;;;;;;2.45;1.10;;;;;;;8.59;36.95;93427.81;5031595;28;20033;-78
2022/01/01 21:47:48;;;;;;;7.13;1.60;;;;;;;8.58;36.89;93433.28;5033280;28;20042;-79
2022/01/01 21:50:14;;;;;;;2.53;1.20;;;;;;;8.55;37.16;93437.97;5032791;28;20038;-80
2022/01/01 21:52:44;;;;;;;2.05;1.15;;;;;;;8.51;36.81;93447.34;5033119;28;20037;-79
2022/01/01 21:55:11;;;;;;;2.65;1.30;;;;;;;8.48;36.79;93439.22;5033019;28;20546;-79
2022/01/01 21:57:37;;;;;;;2.30;1.10;;;;;;;8.41;37.01;93449.84;5031970;28;20026;-79
2022/01/01 22:00:04;;;;;;;2.40;1.13;;;;;;;8.42;36.06;93450.63;5015932;28;20056;-78
2022/01/01 22:02:30;;;;;;;2.15;1.20;;;;;;;8.41;36.64;93447.25;5033436;28;20116;-79
2022/01/01 22:04:56;;;;;;;1.42;1.00;;;;;;;8.37;36.78;93443.53;5032541;28;20069;-79
2022/01/01 22:07:23;;;;;;;1.88;1.13;;;;;;;8.35;37.29;93448.19;5032073;28;20025;-79
2022/01/01 22:09:50;;;;;;;3.95;1.15;;;;;;;8.31;37.27;93439.31;5031903;28;20033;-79
2022/01/01 22:12:15;;;;;;;2.00;1.20;;;;;;;8.31;37.44;93449.75;5048801;28;20044;-79
2022/01/01 22:14:41;;;;;;;3.28;1.50;;;;;;;8.25;37.71;93450.75;5031665;28;20077;-79
2022/01/01 22:17:07;;;;;;;2.13;1.25;;;;;;;8.21;37.11;93449.66;5031443;28;20112;-78
2022/01/01 22:19:32;;;;;;;3.75;1.83;;;;;;;8.20;36.95;93453.31;5032804;28;20030;-79
2022/01/01 22:21:58;;;;;;;4.70;1.70;;;;;;;8.12;36.42;93441.50;5033074;28;20033;-79
2022/01/01 22:24:24;;;;;;;4.10;1.77;;;;;;;8.21;36.51;93458.25;5033074;28;20040;-79
2022/01/01 22:26:49;;;;;;;4.45;1.90;;;;;;;8.20;36.23;93456.69;5031719;28;20026;-79
2022/01/01 22:29:15;;;;;;;13.13;5.18;;;;;;;8.20;36.03;93453.31;5033053;28;20112;-80
2022/01/01 22:31:41;;;;;;;6.68;2.65;;;;;;;8.22;36.03;93459.03;5031416;28;20541;-79
2022/01/01 22:34:07;;;;;;;4.75;1.80;;;;;;;8.23;35.55;93464.03;5032648;28;20049;-79
2022/01/01 22:36:34;;;;;;;3.30;1.40;;;;;;;8.20;36.00;93467.13;5032503;28;20395;-79
2022/01/01 22:39:00;;;;;;;1.42;0.90;;;;;;;8.17;36.75;93472.03;5032073;28;20041;-79
2022/01/01 22:41:25;;;;;;;2.70;1.10;;;;;;;8.09;37.03;93460.25;5006054;28;20030;-79
2022/01/01 22:43:51;;;;;;;0.93;0.80;;;;;;;8.02;37.30;93470.88;5017200;28;20038;-79
2022/01/01 22:46:17;;;;;;;1.15;0.70;;;;;;;7.93;37.18;93469.75;5018294;28;20029;-78
2022/01/01 22:48:43;;;;;;;6.22;2.92;;;;;;;7.91;37.38;93472.59;5018540;28;20033;-78
2022/01/01 22:51:08;;;;;;;7.03;2.85;;;;;;;7.89;37.44;93471.25;5018301;28;20087;-78
2022/01/01 22:53:34;;;;;;;4.85;1.90;;;;;;;7.90;37.20;93470.22;5018727;28;20113;-78
2022/01/01 22:56:00;;;;;;;3.72;1.70;;;;;;;7.86;37.24;93464.72;5018660;28;20057;-78
2022/01/01 22:58:25;;;;;;;4.97;1.20;;;;;;;7.78;37.10;93453.94;5018988;28;20034;-79
2022/01/01 23:10:03;;;;;;;;;;;;;;;;;;;;;
2022/01/01 23:20:26;;;;;;;1.85;1.02;;;;;;;7.72;37.61;93424.41;5014118;28;20073;-92
2022/01/01 23:35:20;;;;;;;;;;;;;;;;;;;;;
2022/01/01 23:46:09;;;;;;;2.33;1.30;;;;;;;7.76;37.41;93445.56;4951441;29;20108;-93
2022/01/01 23:49:30;;;;;;;2.72;1.30;;;;;;;7.44;37.47;93396.78;4946037;28;20106;-91
2022/01/01 23:53:03;;;;;;;;;;;;;;;;;;;;;
